Close

Questo sito utlizza cookie. Può leggere come li usiamo nella nostra Privacy Policy.

Ronchi Tower
Ronchi Tower

News

Posted by Fabio Davanzo - 05 Sep 2017
Views: 61

Come da titolo, la nuova compagnia aerea Fly Valan di origine rumena inzierà le sue attività con un ATR72 basato su Genova. Dal 2 novembre partirà il collegamento trisettimanale Genova-Trieste, i voli sono prenotabili dal 8 settembre.

...

From Facebook

Real Time Flights

(Updated: 21 Oct - 08:08)    
Fonte: Triesteairport.it

Arrivals

Volo Provenienza Effettivo Note
AZ 01357 Roma FCO 10:25
FR 08647 Trapani 11:35
LH 01934 Munich 12:25
FR 02707 Catania 12:40
AZ 01365 Roma FCO 16:10
JP 00943 Torino 16:20
AZ 01361 Roma FCO 19:55
FR 00168 London STN 20:45
FR 08954 Bari 20:45
AZ 01353 Milano LIN 22:10

Departures

Volo Destinazione Effettivo Note
AZ 01354 Roma FCO 08:05
AZ 01358 Roma FCO 11:10
FR 08648 Trapani 12:00
LH 01935 Munich 13:05
FR 02708 Catania 13:10
JP 00945 Ljubljana 17:05
AZ 01364 Roma FCO 19:00
FR 00169 London STN 21:10
FR 08955 Bari 21:10

METAR & TAF

2017/10/21 06:20 LIPQ 210620Z 32002KT 5000 BR BKN035 13/12 Q1021
2017/10/21 06:21 TAF LIPQ 210500Z 2106/2206 VRB05KT 4000 BR BKN030 BECMG 2110/2112 6000 BECMG 2118/2120 2000 BR
2017/10/21 06:20 LIPZ 210620Z 02003KT 1700 BR OVC026 13/12 Q1021 NOSIG
2017/10/21 06:24 TAF LIPZ 210500Z 2106/2212 VRB05KT 1500 BR BKN020 BECMG 2112/2114 5000 BECMG 2206/2208 03013KT 9999 TEMPO 2206/2212 4000 TSRA
2017/10/21 06:20 LIPH 210620Z 05002KT 1000 R07/P1500N BR SCT008 BKN015 13/12 Q1021
2017/10/21 06:21 TAF LIPH 210500Z 2106/2206 VRB05KT 1200 BR BKN005 BECMG 2107/2109 2000 SCT015 BECMG 2110/2112 5000 BECMG 2118/2120 1500 BECMG 2204/2206 4000
2017/10/21 06:20 LIRF 210620Z 08004KT 9000 NSC 12/11 Q1021 NOSIG
2017/10/21 06:21 TAF LIRF 210500Z 2106/2212 VRB04KT 3000 BR FEW018 BECMG 2106/2108 7000 BECMG 2108/2110 25010KT BECMG 2116/2118 25010KT BECMG 2118/2121 16010KT TEMPO 2206/2212 SHRA BECMG 2209/2212 25014KT
2017/10/21 06:20 LIML 210620Z 19002KT 1500 BR BKN015 13/12 Q1021 NOSIG
2017/10/21 06:21 TAF LIML 210500Z 2106/2206 VRB05KT 2000 BR BKN012 TEMPO 2106/2108 0500 FG BKN003 BECMG 2108/2111 3500 BR BECMG 2119/2121 BKN020 BKN060 TEMPO 2200/2206 SHRA
2017/10/21 06:20 EDDM 210620Z 26004KT 8000 -RA FEW015 BKN028 12/11 Q1018 RERA NOSIG
2017/10/21 06:27 TAF EDDM 210500Z 2106/2212 24005KT 9999 SCT030 TEMPO 2116/2120 VRB03KT BECMG 2119/2121 28012KT TEMPO 2121/2202 32015G25KT 4000 RA BKN010 BECMG 2201/2203 24007KT
2017/10/21 06:20 EGSS 210620Z AUTO 20015KT 9999 SCT017 SCT028 12/10 Q1002
2017/10/21 06:15 TAF EGSS 210500Z 2106/2212 18012KT 9999 BKN009 BECMG 2106/2108 SCT025 PROB30 TEMPO 2106/2116 7000 SHRA BECMG 2108/2110 20018G28KT PROB30 TEMPO 2109/2120 21023G38KT TEMPO 2116/2120 7000 SHRA BKN014 BECMG 2119/2121 24013KT PROB30 TEMPO 2120/2206 25016G26KT 7000 SHRA BECMG 2206/2209 27020G30KT TEMPO 2206/2210 7000 RA BKN014

FlightRadar24

Radar Meteo

Traffic data

Agosto 2017

Passeggeri: 73395+12,9% (rank: 24)
Nazionali 43031 +32,4% 23°
Internazionali 30099 -6,6% 27°

Movimenti: 1170-24,7% (rank: 26)
Tot commerciale 599 -5,8% 26°
Aviazione generale 571 -37,7% 13°

Cargo (tons): 12,7-65,2% (rank: 22)

Gennaio - Agosto 2017

Passeggeri: 525984+9,9% (rank: 24)
Nazionali 339367 16,4% 22°
Internazionali 184283 -0,3% 27°

Movimenti: 10820+8,6% (rank: 22)
Tot commerciale 5984 +9,3% 24°
Aviazione generale 4836 +7,7%

Cargo (tons): 184,3-44,6% (rank: 21)

Photo

Eurocopter EC-145
Eurocopter EC-145
Distinct views: 12
Eurocopter EC-145
Eurocopter EC-145
Distinct views: 50
Eurocopter EC-145
Eurocopter EC-145
Distinct views: 128
Eurocopter AS-350 Ecureuil
Eurocopter AS-350 Ecureuil
Total views: 664